Hampton, NH (03842)

10:59 AM EDT on August 27, 2016 (GMT -0400)
Between beach and center of town | | Change Station

Elev 69 ft 42.94 °N, 70.83 °W | Updated 14 minutes ago

Partly Cloudy
Partly Cloudy
82.0 °F
Feels Like 83 °F
N
1.7
Wind Variable Wind from North

Today
High -- | Low -- °F
--% Chance of Precip.
Yesterday
High -- | Low -- °F
Precip. -- in
Pressure 30.19 in
Visibility 10.0 miles
Clouds Few 25000 ft
Heat Index 83 °F
Dew Point 64 °F
Humidity 54%
Rainfall Not available.
Snow Depth Not available.
6:02 AM 7:25 PM
Waning Crescent, 24% visible
METAR KPSM 271358Z VRB02KT 10SM FEW250 26/15 A3018 RMK AO2A SLP222 T02620153
Pressure 30.19 in
Visibility 10.0 miles
Clouds Few 25000 ft
Heat Index 83 °F
Dew Point 64 °F
Humidity 54%
Rainfall Not available.
Snow Depth Not available.
6:02 AM 7:25 PM
Waning Crescent, 24% visible
METAR KPSM 271358Z VRB02KT 10SM FEW250 26/15 A3018 RMK AO2A SLP222 T02620153

10-Day Weather Forecast

Almanac

Astronomy

Aug. 27, 2016 Rise Set
Actual Time
Civil Twilight
Nautical Twilight
Astronomical Twilight
Moon
Length of Visible Light
Length of Day
Tomorrow will be .
, % of the Moon is Illuminated

Today's Extremes

State Highs State Lows

Community

WunderPhotos

Upload Photos

1,935,344 photos uploaded!

WunderBlog® & News

Nearby

Air Quality

  Air Quality AQ Index Pollutant
Not available.

Snow Depth

Station Depth Elevation

Earthquake Activity

City Distance Mag. Time & Date
Minimum magnitude displayed is 2.5.

Coastal Water Temperatures

Place Temperature

Stations

Nearby Weather Stations

Station Location Temp. Windchill Dew Point Humidity Wind Precip. Elev Updated Type
                   

Watches & Warnings

There are currently no watches in effect.